This is the latest recevied weather packets stored in our database for station/object KP4FJC. If no packets are shown the sender has not sent any weather packets the latest 10 day(s).
| Time | Temp. | Humidity | Pressure | Rain* | Wind** | Luminosity | Snow |
|---|---|---|---|---|---|---|---|
| 1777754555 | 30.56° C | 58% | 1015.3 hPa | 0 mm | - | 305 W/m² | - |
| 1777754253 | 30.56° C | 57% | 1015.4 hPa | 0 mm | - | 327 W/m² | - |
| 1777753950 | 31.11° C | 57% | 1015.6 hPa | 0 mm | - | 348 W/m² | - |
| 1777753644 | 31.11° C | 56% | 1015.6 hPa | 0 mm | - | 370 W/m² | - |
| 1777753343 | 30.56° C | 59% | 1015.5 hPa | 0 mm | - | 391 W/m² | - |
| 1777753040 | 31.11° C | 57% | 1015.6 hPa | 0 mm | - | 412 W/m² | - |
| 1777752736 | 31.11° C | 57% | 1015.6 hPa | 0 mm | - | 433 W/m² | - |
| 1777752432 | 31.11° C | 58% | 1015.4 hPa | 0 mm | - | 455 W/m² | - |
| 1777752129 | 31.11° C | 57% | 1015.4 hPa | 0 mm | - | 477 W/m² | - |
| 1777751827 | 31.67° C | 55% | 1015.6 hPa | 0 mm | - | 496 W/m² | - |
| 1777751523 | 31.11° C | 58% | 1015.4 hPa | 0 mm | - | 515 W/m² | - |
| 1777751220 | 31.11° C | 59% | 1015.4 hPa | 0 mm | - | 535 W/m² | - |
| 1777750917 | 31.11° C | 60% | 1015.7 hPa | 0 mm | - | 560 W/m² | - |
| 1777750613 | 31.11° C | 60% | 1015.5 hPa | 0 mm | - | 576 W/m² | - |
| 1777750310 | 31.11° C | 60% | 1015.7 hPa | 0 mm | - | 597 W/m² | - |
| 1777750006 | 31.67° C | 59% | 1015.8 hPa | 0 mm | - | 618 W/m² | - |
| 1777749703 | 31.11° C | 60% | 1015.6 hPa | 0 mm | - | 636 W/m² | - |
| 1777749399 | 31.11° C | 60% | 1015.6 hPa | 0 mm | - | 655 W/m² | - |
| 1777749092 | 30.56° C | 61% | 1015.7 hPa | 0 mm | - | 674 W/m² | - |
| 1777748789 | 32.22° C | 57% | 1015.6 hPa | 0 mm | - | 688 W/m² | - |
| 1777748486 | 31.67° C | 59% | 1015.8 hPa | 0 mm | - | 707 W/m² | - |
| 1777748181 | 31.11° C | 63% | 1015.9 hPa | 0 mm | - | 735 W/m² | - |
| 1777747878 | 31.11° C | 63% | 1015.7 hPa | 0 mm | - | 466 W/m² | - |
| 1777747574 | 31.11° C | 62% | 1015.9 hPa | 0 mm | - | 773 W/m² | - |
| 1777747269 | 31.11° C | 62% | 1016 hPa | 0 mm | - | 787 W/m² | - |
* Rain latest hour (hover to see other rain measurements)
** Current wind speed in m/s (hover to see current wind gust speed)